Time;durP1;ratioP1;P1;durP2;ratioP2;P2;SDS_P1;SDS_P2;PMS_P1;PMS_P2;Temp;Humidity;BMP_temperature;BMP_pressure;BME280_temperature;BME280_humidity;BME280_pressure;Samples;Min_cycle;Max_cycle;Signal;HPM_P1;HPM_P2
2022/01/12 00:00:08;;;;;;;8.85;4.95;;;;;;;-2.23;87.26;98235.22;2100944;28;20202;-58
2022/01/12 00:01:14;;;;;;;13.75;5.00;;;;;;;-2.54;86.97;98179.34;2101153;28;20195;-58
2022/01/12 00:02:18;;;;;;;9.90;5.90;;;;;;;-2.23;86.91;98232.66;2101218;28;20663;-58
2022/01/12 00:03:20;;;;;;;9.30;5.80;;;;;;;-2.27;87.47;98215.50;2101276;28;20195;-58
2022/01/12 00:04:21;;;;;;;9.98;5.55;;;;;;;-2.23;86.98;98229.22;2101938;28;20284;-58
2022/01/12 00:05:24;;;;;;;7.97;4.75;;;;;;;-2.22;87.14;98229.22;2102780;28;20223;-58
2022/01/12 00:06:25;;;;;;;14.90;7.07;;;;;;;-2.27;87.54;98224.91;2102847;28;20207;-58
2022/01/12 00:07:26;;;;;;;12.75;6.28;;;;;;;-2.26;87.65;98229.19;2102443;28;20649;-58
2022/01/12 00:08:30;;;;;;;8.65;5.95;;;;;;;-2.28;87.17;98225.75;2102528;28;20202;-57
2022/01/12 00:09:32;;;;;;;11.70;5.50;;;;;;;-2.27;87.33;98223.22;2101822;28;20282;-58
2022/01/12 00:10:34;;;;;;;10.52;6.10;;;;;;;-2.25;87.26;98228.38;2102919;28;20203;-58
2022/01/12 00:11:36;;;;;;;10.15;5.97;;;;;;;-2.49;87.02;98191.38;2102887;28;20228;-58
2022/01/12 00:12:38;;;;;;;10.85;6.18;;;;;;;-2.25;86.77;98229.22;2103368;28;20207;-58
2022/01/12 00:13:39;;;;;;;11.18;6.15;;;;;;;-2.34;86.41;98206.03;2101326;28;20202;-58
2022/01/12 00:14:41;;;;;;;9.05;5.47;;;;;;;-2.22;86.34;98231.78;2102543;28;20600;-58
2022/01/12 00:15:42;;;;;;;8.60;4.85;;;;;;;-2.26;86.43;98224.06;2103112;28;20194;-58
2022/01/12 00:16:47;;;;;;;8.50;5.50;;;;;;;-2.54;86.40;98194.75;2101615;28;20191;-58
2022/01/12 00:17:49;;;;;;;10.25;5.05;;;;;;;-2.29;86.92;98234.31;2102403;28;20286;-58
2022/01/12 00:18:50;;;;;;;8.70;5.28;;;;;;;-2.28;86.68;98230.88;2102207;28;20211;-58
2022/01/12 00:19:52;;;;;;;11.68;5.68;;;;;;;-2.25;86.96;98233.50;2102497;28;20223;-58
2022/01/12 00:20:54;;;;;;;9.70;5.40;;;;;;;-2.28;87.16;98233.44;2102001;28;20282;-58
2022/01/12 00:21:56;;;;;;;9.55;5.20;;;;;;;-2.30;87.07;98236.00;2101619;28;20194;-58
2022/01/12 00:22:58;;;;;;;10.40;5.18;;;;;;;-2.33;87.12;98233.44;2101670;28;20195;-58
2022/01/12 00:23:59;;;;;;;9.32;5.18;;;;;;;-2.56;86.53;98186.19;2101870;28;20207;-59
2022/01/12 00:26:08;;;;;;;10.55;5.20;;;;;;;-2.29;86.71;98237.72;2102115;28;20670;-58
2022/01/12 00:33:54;;;;;;;8.23;4.55;;;;;;;-2.41;87.81;98238.50;2101575;28;20250;-58
2022/01/12 00:34:55;;;;;;;11.55;5.00;;;;;;;-2.42;87.77;98239.31;2102193;28;20187;-58
2022/01/12 00:35:58;;;;;;;7.68;4.30;;;;;;;-2.50;87.71;98240.97;2102013;28;20198;-58
2022/01/12 00:37:00;;;;;;;14.60;5.40;;;;;;;-2.54;88.60;98235.81;2102581;28;20202;-58
2022/01/12 00:38:02;;;;;;;11.80;5.60;;;;;;;-2.55;88.92;98236.63;2101912;28;20208;-58
2022/01/12 00:39:06;;;;;;;9.02;5.25;;;;;;;-2.55;88.79;98234.91;2102007;28;20238;-58
2022/01/12 00:40:08;;;;;;;8.60;5.65;;;;;;;-2.55;88.34;98234.06;2101885;28;20191;-58
2022/01/12 00:41:09;;;;;;;11.45;5.47;;;;;;;-2.62;87.09;98197.25;2102191;28;20204;-58
2022/01/12 00:42:13;;;;;;;11.25;6.15;;;;;;;-2.49;86.94;98244.38;2100767;28;20210;-58
2022/01/12 00:43:17;;;;;;;15.95;7.00;;;;;;;-2.61;87.27;98245.13;2102404;28;20836;-58
2022/01/12 00:44:23;;;;;;;11.90;7.45;;;;;;;-2.76;89.20;98250.97;2101177;28;20223;-58
2022/01/12 00:45:25;;;;;;;14.13;7.50;;;;;;;-2.82;89.57;98236.38;2100102;28;20825;-57
2022/01/12 00:46:29;;;;;;;14.18;7.03;;;;;;;-2.69;89.23;98246.75;2101870;28;20214;-57
2022/01/12 00:47:30;;;;;;;12.80;7.03;;;;;;;-2.92;89.28;98220.88;2101836;28;20594;-57
2022/01/12 00:48:36;;;;;;;10.98;6.95;;;;;;;-2.73;90.05;98250.16;2101913;28;20199;-58
2022/01/12 00:49:37;;;;;;;10.73;6.43;;;;;;;-2.82;90.31;98245.78;2102069;28;20236;-57
2022/01/12 00:50:40;;;;;;;11.50;6.50;;;;;;;-2.83;90.10;98242.34;2102152;28;20218;-58
2022/01/12 00:51:41;;;;;;;13.23;7.20;;;;;;;-2.87;90.45;98240.59;2102412;28;20198;-58
2022/01/12 00:52:43;;;;;;;13.20;6.38;;;;;;;-2.87;90.47;98242.31;2102033;28;20197;-58
2022/01/12 00:53:44;;;;;;;12.77;6.65;;;;;;;-2.85;90.34;98240.63;2101403;28;20198;-58
2022/01/12 00:54:46;;;;;;;10.15;4.95;;;;;;;-2.89;90.19;98241.44;2102371;28;20289;-58
2022/01/12 00:55:47;;;;;;;11.32;6.00;;;;;;;-2.78;89.74;98247.53;2101406;28;20194;-58
2022/01/12 00:56:49;;;;;;;15.13;8.40;;;;;;;-2.55;88.83;98244.34;2102259;28;20254;-58
2022/01/12 00:57:51;;;;;;;12.35;7.82;;;;;;;-2.66;88.70;98236.53;2102322;28;20235;-57
2022/01/12 00:58:53;;;;;;;14.63;7.75;;;;;;;-2.80;89.33;98249.22;2101817;28;20190;-58
2022/01/12 00:59:55;;;;;;;14.35;8.25;;;;;;;-2.91;89.90;98246.53;2102331;28;20194;-58
2022/01/12 01:00:56;;;;;;;14.15;7.22;;;;;;;-2.96;89.94;98244.75;2102078;28;20195;-58
2022/01/12 01:01:58;;;;;;;12.35;7.15;;;;;;;-3.25;90.92;98205.16;2100651;28;20305;-57
2022/01/12 01:02:59;;;;;;;14.73;5.95;;;;;;;-3.08;91.19;98246.34;2102262;28;20206;-58
2022/01/12 01:04:02;;;;;;;14.82;6.82;;;;;;;-3.01;91.20;98248.13;2101766;28;20284;-58
2022/01/12 01:05:04;;;;;;;10.15;5.75;;;;;;;-3.08;90.92;98254.03;2101470;28;20227;-58
2022/01/12 01:06:11;;;;;;;10.80;5.97;;;;;;;-3.09;91.26;98236.94;2101521;28;20205;-57
2022/01/12 01:07:12;;;;;;;10.23;6.03;;;;;;;-3.01;91.00;98249.84;2100231;28;20202;-57
2022/01/12 01:08:14;;;;;;;8.45;5.68;;;;;;;-3.06;90.97;98254.94;2102165;28;20198;-58
2022/01/12 01:09:15;;;;;;;10.55;6.40;;;;;;;-3.11;91.31;98248.03;2100773;28;20222;-58
2022/01/12 01:11:49;;;;;;;11.50;6.18;;;;;;;-3.20;91.84;98248.75;2102701;28;20553;-58
2022/01/12 01:12:52;;;;;;;14.70;6.13;;;;;;;-3.23;91.35;98247.03;2093590;28;20205;-58
2022/01/12 01:15:05;;;;;;;10.25;5.13;;;;;;;-3.13;91.61;98253.13;2093113;28;20650;-59
2022/01/12 01:16:22;;;;;;;8.45;5.15;;;;;;;-2.97;90.94;98241.34;2092554;28;20204;-57
2022/01/12 01:25:33;;;;;;;9.73;5.50;;;;;;;-3.34;91.44;98240.91;2102221;28;20200;-58
2022/01/12 01:26:35;;;;;;;10.45;4.65;;;;;;;-3.31;91.44;98245.22;2101145;28;20202;-56
2022/01/12 01:27:36;;;;;;;6.47;4.47;;;;;;;-3.35;91.42;98254.59;2101633;28;20709;-56
2022/01/12 01:28:38;;;;;;;10.30;6.22;;;;;;;-3.40;92.03;98244.25;2102013;28;20205;-58
2022/01/12 01:29:39;;;;;;;9.45;5.72;;;;;;;-3.91;92.38;98160.78;2102560;28;20557;-59
2022/01/12 01:30:44;;;;;;;13.23;4.90;;;;;;;-3.31;91.83;98252.88;2101596;28;20565;-59
2022/01/12 01:31:46;;;;;;;8.23;4.60;;;;;;;-3.41;92.33;98247.66;2101060;28;20205;-59
2022/01/12 01:32:48;;;;;;;8.88;4.78;;;;;;;-3.26;92.14;98254.69;2101693;28;20735;-59
2022/01/12 01:33:50;;;;;;;8.68;4.60;;;;;;;-3.30;92.15;98258.03;2101038;28;20193;-59
2022/01/12 01:34:52;;;;;;;9.13;5.15;;;;;;;-3.24;92.36;98260.69;2101430;28;20205;-59
2022/01/12 01:35:56;;;;;;;11.48;5.75;;;;;;;-3.38;92.56;98246.84;2101743;28;20209;-59
2022/01/12 01:36:58;;;;;;;10.00;5.18;;;;;;;-3.28;92.67;98260.63;2102257;28;20557;-59
2022/01/12 01:38:01;;;;;;;7.40;4.55;;;;;;;-3.29;92.57;98246.97;2102017;28;20196;-59
2022/01/12 01:39:04;;;;;;;6.72;4.38;;;;;;;-3.26;92.11;98248.69;2101161;28;20266;-58
2022/01/12 01:40:11;;;;;;;9.40;4.03;;;;;;;-3.14;90.52;98243.72;2101849;28;20194;-59
2022/01/12 01:41:14;;;;;;;9.52;5.07;;;;;;;-3.12;90.29;98247.16;2101425;28;20217;-59
2022/01/12 01:42:24;;;;;;;7.70;4.97;;;;;;;-3.24;90.42;98247.00;2101216;28;20212;-59
2022/01/12 01:53:43;;;;;;;9.30;5.30;;;;;;;-3.75;92.52;98212.19;2101503;28;20651;-57
2022/01/12 01:54:45;;;;;;;7.90;5.18;;;;;;;-3.53;92.95;98242.38;2101800;28;20636;-57
2022/01/12 01:55:46;;;;;;;9.57;6.00;;;;;;;-3.53;92.57;98234.69;2100522;28;20209;-57
2022/01/12 01:56:48;;;;;;;10.50;5.43;;;;;;;-3.48;91.97;98245.88;2101370;28;20212;-57
2022/01/12 01:57:49;;;;;;;7.30;4.38;;;;;;;-3.45;91.60;98239.91;2100022;28;20209;-58
2022/01/12 01:58:51;;;;;;;11.60;5.30;;;;;;;-3.39;91.16;98247.69;2100951;28;20201;-56
2022/01/12 01:59:53;;;;;;;10.98;5.15;;;;;;;-3.38;90.96;98242.56;2101496;28;20193;-57
2022/01/12 02:00:54;;;;;;;12.30;5.47;;;;;;;-3.45;90.85;98235.66;2101704;28;20202;-57
2022/01/12 02:01:56;;;;;;;10.30;5.82;;;;;;;-3.37;90.84;98243.47;2101442;28;20239;-57
2022/01/12 02:02:58;;;;;;;10.25;5.80;;;;;;;-3.42;90.90;98252.78;2088631;28;20696;-57
2022/01/12 02:04:02;;;;;;;7.82;4.65;;;;;;;-3.56;90.52;98247.47;2088209;28;20334;-57
2022/01/12 02:05:05;;;;;;;8.70;4.82;;;;;;;-3.61;91.93;98257.66;2101545;28;20204;-59
2022/01/12 02:06:08;;;;;;;11.15;5.18;;;;;;;-3.67;91.71;98249.00;2100250;28;20193;-57
2022/01/12 02:07:09;;;;;;;7.82;4.72;;;;;;;-3.74;92.41;98249.75;2101746;28;20190;-57
2022/01/12 02:08:11;;;;;;;10.80;5.05;;;;;;;-3.65;92.63;98261.00;2101813;28;20192;-57
2022/01/12 02:09:13;;;;;;;10.27;5.00;;;;;;;-3.63;92.25;98266.13;2101255;28;20229;-57
2022/01/12 02:10:14;;;;;;;9.43;5.60;;;;;;;-3.64;92.98;98267.84;2099305;28;20213;-57
2022/01/12 02:11:16;;;;;;;8.52;5.22;;;;;;;-3.61;92.38;98267.91;2101510;28;20204;-57
2022/01/12 02:12:36;;;;;;;9.45;5.53;;;;;;;-3.56;92.01;98270.53;2101755;28;20202;-57
2022/01/12 02:13:37;;;;;;;6.85;4.22;;;;;;;-3.56;92.09;98267.97;2101632;28;20196;-57
2022/01/12 02:14:39;;;;;;;10.80;6.28;;;;;;;-3.47;92.05;98277.47;2100818;28;20702;-56
2022/01/12 02:15:45;;;;;;;8.18;4.90;;;;;;;-3.67;92.15;98266.94;2101350;28;20197;-57
2022/01/12 02:16:58;;;;;;;9.25;6.30;;;;;;;-3.88;92.24;98247.00;2101524;28;20640;-57
2022/01/12 02:18:14;;;;;;;12.50;5.95;;;;;;;-3.78;92.31;98280.47;2101155;28;20201;-57
2022/01/12 02:35:37;;;;;;;15.10;6.05;;;;;;;-3.94;93.64;98252.91;2097794;28;20218;-60
2022/01/12 02:36:55;;;;;;;12.50;6.25;;;;;;;-3.95;93.85;98250.31;2100545;28;20205;-57
2022/01/12 02:40:21;;;;;;;12.90;6.57;;;;;;;-3.91;93.34;98250.38;2100690;28;20295;-57
2022/01/12 02:41:23;;;;;;;11.80;6.13;;;;;;;-3.90;93.37;98241.00;2101553;28;20203;-57
2022/01/12 02:42:26;;;;;;;13.32;6.30;;;;;;;-3.98;93.34;98235.75;2102089;28;20211;-57
2022/01/12 02:51:27;;;;;;;11.18;5.47;;;;;;;-3.61;92.84;98241.41;2101420;28;20199;-57
2022/01/12 02:53:49;;;;;;;9.65;5.50;;;;;;;-3.90;92.82;98231.66;2099991;28;20191;-57
2022/01/12 02:54:53;;;;;;;8.50;5.50;;;;;;;-3.86;93.05;98242.75;2099652;28;20204;-57
2022/01/12 02:55:55;;;;;;;9.38;5.30;;;;;;;-3.86;93.14;98241.09;2101351;28;20199;-57
2022/01/12 02:56:56;;;;;;;11.73;6.00;;;;;;;-3.80;93.03;98253.13;2100542;28;20207;-57
2022/01/12 02:57:58;;;;;;;10.55;6.20;;;;;;;-3.97;92.83;98234.94;2100690;28;20203;-57
2022/01/12 02:59:00;;;;;;;13.63;5.80;;;;;;;-4.08;93.27;98223.66;2100890;28;20200;-57
2022/01/12 03:00:13;;;;;;;9.27;5.18;;;;;;;-4.03;93.29;98260.44;2101848;28;20214;-59
2022/01/12 03:02:23;;;;;;;10.65;5.22;;;;;;;-4.13;93.21;98256.03;2100689;28;20191;-59
2022/01/12 03:03:30;;;;;;;18.42;6.05;;;;;;;-4.26;93.65;98250.69;2100588;28;20202;-60
2022/01/12 03:04:32;;;;;;;9.20;5.82;;;;;;;-4.14;93.97;98261.97;2100329;28;20235;-60
2022/01/12 03:05:45;;;;;;;15.68;6.70;;;;;;;-4.11;93.39;98254.34;2101338;28;20241;-57
2022/01/12 03:06:47;;;;;;;13.82;6.35;;;;;;;-4.04;93.82;98264.72;2101484;28;20206;-57
2022/01/12 03:07:48;;;;;;;8.85;5.45;;;;;;;-4.05;93.51;98259.56;2101048;28;20200;-57
2022/01/12 03:08:51;;;;;;;11.10;6.35;;;;;;;-4.35;93.58;98217.31;2100366;28;20201;-59
2022/01/12 03:09:52;;;;;;;11.15;6.60;;;;;;;-4.14;93.99;98265.38;2101497;28;20200;-59
2022/01/12 03:10:55;;;;;;;9.85;6.10;;;;;;;-4.12;93.31;98262.84;2101250;28;20207;-59
2022/01/12 03:11:56;;;;;;;11.50;6.57;;;;;;;-4.21;92.83;98251.63;2101394;28;20199;-57
2022/01/12 03:12:58;;;;;;;11.88;7.13;;;;;;;-4.08;92.92;98264.63;2101471;28;20197;-57
2022/01/12 03:13:59;;;;;;;11.70;6.65;;;;;;;-4.28;92.25;98223.38;2098546;28;20206;-57
2022/01/12 03:15:01;;;;;;;18.85;9.05;;;;;;;-3.80;90.97;98258.25;2100889;28;20197;-56
2022/01/12 03:16:12;;;;;;;21.60;10.60;;;;;;;-3.75;89.12;98246.34;2098978;28;20204;-57
2022/01/12 03:17:15;;;;;;;23.67;10.00;;;;;;;-4.06;89.92;98247.59;2100852;28;20191;-57
2022/01/12 03:18:17;;;;;;;19.17;10.70;;;;;;;-4.34;90.94;98239.47;2100766;28;20644;-57
2022/01/12 03:19:19;;;;;;;19.27;9.93;;;;;;;-4.39;92.09;98249.66;2100289;28;20238;-57
2022/01/12 03:20:20;;;;;;;15.15;7.93;;;;;;;-4.34;92.72;98247.16;2101442;28;20195;-57
2022/01/12 03:21:28;;;;;;;17.50;7.88;;;;;;;-4.39;93.28;98256.44;2101009;28;20208;-57
2022/01/12 03:22:30;;;;;;;17.85;7.82;;;;;;;-4.38;93.39;98250.50;2100812;28;20225;-57
2022/01/12 03:23:32;;;;;;;14.55;7.13;;;;;;;-4.51;93.58;98233.22;2101164;28;20204;-57
2022/01/12 03:24:34;;;;;;;15.02;6.85;;;;;;;-4.36;93.81;98261.63;2100663;28;20238;-57
2022/01/12 03:25:35;;;;;;;17.55;8.50;;;;;;;-4.40;94.39;98264.97;2101450;28;20199;-56
2022/01/12 03:26:37;;;;;;;13.07;7.63;;;;;;;-4.43;94.43;98275.13;2101123;28;20200;-59
2022/01/12 03:27:39;;;;;;;15.48;8.18;;;;;;;-4.37;94.34;98275.25;2101032;28;20202;-59
2022/01/12 03:28:43;;;;;;;13.30;8.05;;;;;;;-4.25;94.24;98272.91;2097636;28;20195;-59
2022/01/12 03:29:50;;;;;;;14.80;8.25;;;;;;;-4.28;93.51;98277.94;2100709;28;20720;-60
2022/01/12 03:30:58;;;;;;;19.52;8.85;;;;;;;-4.30;93.39;98284.75;2101367;28;20211;-59
2022/01/12 03:32:01;;;;;;;16.25;8.50;;;;;;;-4.47;93.17;98271.69;2101298;28;20658;-59
2022/01/12 03:33:16;;;;;;;12.88;7.18;;;;;;;-4.34;93.17;98277.84;2100348;28;20623;-59
2022/01/12 03:34:25;;;;;;;11.07;6.75;;;;;;;-4.35;92.86;98280.38;2100270;28;20424;-59
2022/01/12 03:35:47;;;;;;;16.25;7.25;;;;;;;-4.67;93.05;98235.50;2100725;28;20201;-59
2022/01/12 03:39:16;;;;;;;14.73;6.38;;;;;;;-4.36;93.83;98282.09;2102619;28;20267;-56
2022/01/12 03:40:18;;;;;;;15.10;7.32;;;;;;;-4.45;94.07;98274.25;2103737;28;20191;-56
2022/01/12 03:41:20;;;;;;;17.48;8.98;;;;;;;-4.57;94.34;98269.78;2102720;28;20190;-59
2022/01/12 03:42:26;;;;;;;12.88;7.63;;;;;;;-4.52;94.28;98277.56;2103349;28;20595;-59
2022/01/12 03:43:27;;;;;;;16.60;8.52;;;;;;;-4.52;94.03;98277.56;2103090;28;20520;-59
2022/01/12 03:44:29;;;;;;;13.95;7.25;;;;;;;-4.54;93.80;98277.50;2101349;28;20251;-59
2022/01/12 03:45:31;;;;;;;12.27;7.35;;;;;;;-4.55;94.14;98274.94;2102708;28;20226;-59
2022/01/12 03:46:39;;;;;;;13.20;6.72;;;;;;;-4.59;94.01;98285.13;2102534;28;20202;-59
2022/01/12 03:47:41;;;;;;;12.30;6.57;;;;;;;-4.62;94.20;98267.16;2101751;28;20200;-59
2022/01/12 03:48:43;;;;;;;9.40;6.30;;;;;;;-4.47;94.07;98286.16;2102787;28;20207;-59
2022/01/12 03:49:44;;;;;;;10.15;6.22;;;;;;;-4.48;94.18;98282.72;2102512;28;20212;-59
2022/01/12 03:50:48;;;;;;;13.27;7.55;;;;;;;-4.56;93.83;98274.06;2101691;28;20245;-57
2022/01/12 03:51:50;;;;;;;14.63;7.95;;;;;;;-4.54;94.04;98282.63;2103011;28;20679;-56
2022/01/12 03:52:52;;;;;;;15.60;7.43;;;;;;;-4.60;94.00;98280.81;2102231;28;20196;-57
2022/01/12 03:53:53;;;;;;;15.73;7.05;;;;;;;-4.62;94.33;98269.72;2102014;28;20207;-56
2022/01/12 03:54:55;;;;;;;12.82;7.15;;;;;;;-4.52;94.30;98287.78;2101538;28;20230;-57
2022/01/12 03:55:56;;;;;;;13.73;8.23;;;;;;;-4.46;94.10;98291.28;2102859;28;20212;-56
2022/01/12 03:56:59;;;;;;;13.25;7.32;;;;;;;-4.47;93.67;98297.25;2102220;28;20208;-57
2022/01/12 03:58:01;;;;;;;15.35;6.75;;;;;;;-4.52;94.33;98293.75;2102114;28;20198;-56
2022/01/12 03:59:03;;;;;;;18.08;6.80;;;;;;;-4.64;93.66;98278.19;2102098;28;20200;-56
2022/01/12 04:00:05;;;;;;;11.75;7.47;;;;;;;-4.58;94.08;98296.19;2101100;28;20581;-56
2022/01/12 04:01:07;;;;;;;15.27;7.15;;;;;;;-4.64;93.75;98296.94;2102851;28;20197;-56
2022/01/12 04:02:09;;;;;;;10.70;6.07;;;;;;;-4.54;93.41;98299.69;2102796;28;20199;-56
2022/01/12 04:03:14;;;;;;;14.18;6.13;;;;;;;-4.63;93.40;98303.78;2102651;28;20199;-56
2022/01/12 04:04:22;;;;;;;10.40;5.78;;;;;;;-4.73;93.40;98299.31;2102041;28;20311;-56
2022/01/12 04:05:40;;;;;;;11.48;6.28;;;;;;;-4.62;93.12;98294.41;2102347;28;20206;-56
2022/01/12 04:08:19;;;;;;;9.68;5.93;;;;;;;-4.92;92.39;98264.91;2102437;28;20199;-56
2022/01/12 04:09:21;;;;;;;11.43;6.38;;;;;;;-4.85;93.21;98305.06;2101737;28;20234;-56
2022/01/12 04:10:22;;;;;;;12.70;6.65;;;;;;;-4.84;93.78;98298.25;2100559;28;20193;-56
2022/01/12 04:11:27;;;;;;;13.45;7.07;;;;;;;-4.83;93.79;98295.72;2102636;28;20290;-56
2022/01/12 04:12:29;;;;;;;12.23;6.25;;;;;;;-4.81;93.89;98265.94;2100719;28;20193;-56
2022/01/12 04:13:31;;;;;;;8.40;5.47;;;;;;;-4.68;93.32;98290.06;2102003;28;20203;-56
2022/01/12 04:14:33;;;;;;;15.05;6.97;;;;;;;-4.74;93.06;98287.38;2095588;28;20563;-57
2022/01/12 04:15:34;;;;;;;14.55;7.47;;;;;;;-4.80;93.18;98274.50;2094442;28;20205;-56
2022/01/12 04:16:37;;;;;;;14.55;7.38;;;;;;;-4.82;93.32;98283.81;2094351;28;20206;-56
2022/01/12 04:17:38;;;;;;;15.68;7.43;;;;;;;-4.78;93.76;98272.81;2094119;28;20196;-56
2022/01/12 04:18:41;;;;;;;13.85;7.30;;;;;;;-4.80;93.45;98274.50;2093499;28;20393;-56
2022/01/12 04:19:42;;;;;;;15.43;7.60;;;;;;;-4.80;93.49;98280.47;2093596;28;20237;-56
2022/01/12 04:20:46;;;;;;;12.63;6.43;;;;;;;-4.80;93.59;98269.38;2094091;28;20294;-57
2022/01/12 04:21:49;;;;;;;11.90;6.38;;;;;;;-4.90;93.94;98268.34;2094203;28;20655;-57
2022/01/12 04:24:13;;;;;;;12.48;6.57;;;;;;;-4.79;94.22;98279.63;2093826;28;20630;-56
2022/01/12 04:25:14;;;;;;;9.82;5.68;;;;;;;-4.65;93.79;98271.34;2093831;28;20638;-57
2022/01/12 04:26:16;;;;;;;12.50;6.75;;;;;;;-4.70;93.65;98255.94;2093996;28;20192;-56
2022/01/12 04:27:17;;;;;;;13.93;7.32;;;;;;;-4.57;93.01;98273.22;2094062;28;20551;-56
2022/01/12 04:28:21;;;;;;;14.57;6.15;;;;;;;-4.65;93.37;98277.31;2093473;28;20192;-56
2022/01/12 04:29:22;;;;;;;11.95;5.25;;;;;;;-4.72;93.36;98284.84;2092350;28;20229;-56
2022/01/12 04:30:24;;;;;;;14.30;6.60;;;;;;;-4.67;93.83;98286.66;2094283;28;20267;-56
2022/01/12 04:31:25;;;;;;;14.25;7.32;;;;;;;-4.62;93.97;98295.28;2094036;28;20235;-56
2022/01/12 04:32:28;;;;;;;12.15;6.90;;;;;;;-4.54;93.60;98295.41;2093972;28;20459;-56
2022/01/12 04:33:30;;;;;;;14.00;7.32;;;;;;;-4.60;93.76;98295.31;2094293;28;20211;-56
2022/01/12 04:34:31;;;;;;;13.00;6.95;;;;;;;-4.58;93.58;98293.66;2093790;28;20228;-57
2022/01/12 04:35:36;;;;;;;12.43;6.63;;;;;;;-4.69;93.63;98283.19;2094578;28;20192;-57
2022/01/12 04:36:38;;;;;;;14.10;6.93;;;;;;;-4.73;94.20;98295.91;2092297;28;20296;-56
2022/01/12 04:37:40;;;;;;;8.93;6.25;;;;;;;-4.89;94.01;98261.53;2093438;28;20197;-56
2022/01/12 04:38:43;;;;;;;13.90;6.55;;;;;;;-4.75;94.52;98280.53;2094431;28;20649;-56
2022/01/12 04:39:45;;;;;;;14.32;7.88;;;;;;;-4.73;94.56;98294.22;2083987;28;20236;-56
2022/01/12 04:40:48;;;;;;;10.02;6.20;;;;;;;-4.80;94.32;98290.69;2094398;28;20197;-58
2022/01/12 04:41:50;;;;;;;11.65;6.47;;;;;;;-4.73;94.56;98299.31;2092091;28;20196;-58
2022/01/12 04:42:53;;;;;;;10.55;6.30;;;;;;;-4.80;94.10;98305.19;2093066;28;20196;-59
2022/01/12 04:43:56;;;;;;;9.85;5.70;;;;;;;-4.82;93.91;98301.69;2092735;28;20536;-59
2022/01/12 04:45:14;;;;;;;13.98;6.03;;;;;;;-4.75;94.03;98310.38;2094139;28;20203;-56
2022/01/12 04:46:24;;;;;;;18.05;6.43;;;;;;;-4.71;93.71;98323.22;2094218;28;20227;-56
2022/01/12 04:47:46;;;;;;;11.57;6.20;;;;;;;-4.81;93.42;98306.00;2093655;28;20200;-56
2022/01/12 04:48:53;;;;;;;8.40;5.82;;;;;;;-4.80;93.84;98312.84;2092113;28;20208;-56
2022/01/12 04:49:56;;;;;;;8.27;5.53;;;;;;;-4.67;93.47;98309.66;2093899;28;20196;-56
2022/01/12 04:50:58;;;;;;;10.88;5.75;;;;;;;-5.00;93.27;98267.31;2094276;28;20204;-56
2022/01/12 04:52:00;;;;;;;10.00;6.10;;;;;;;-5.19;93.43;98258.41;2093917;28;20215;-56
2022/01/12 04:53:01;;;;;;;10.20;6.25;;;;;;;-4.73;93.22;98329.16;2093972;28;20649;-57
2022/01/12 04:54:04;;;;;;;10.25;5.93;;;;;;;-4.70;93.12;98324.09;2093003;28;20196;-56
2022/01/12 04:55:06;;;;;;;10.20;6.53;;;;;;;-4.73;92.19;98319.78;2093591;28;20694;-56
2022/01/12 04:56:07;;;;;;;10.95;6.30;;;;;;;-4.83;92.79;98320.44;2093273;28;20204;-56
2022/01/12 04:57:09;;;;;;;10.85;6.65;;;;;;;-4.88;92.29;98315.25;2093974;28;20200;-56
2022/01/12 04:58:10;;;;;;;15.25;7.65;;;;;;;-4.90;92.88;98326.25;2094425;28;20793;-57
2022/01/12 04:59:12;;;;;;;12.63;7.68;;;;;;;-4.84;92.80;98327.25;2091128;28;20234;-56
2022/01/12 05:00:17;;;;;;;12.95;7.35;;;;;;;-4.85;93.11;98322.09;2093093;28;20188;-56
2022/01/12 05:01:24;;;;;;;16.20;7.25;;;;;;;-4.84;93.11;98321.25;2093258;28;20200;-56
2022/01/12 05:06:52;;;;;;;14.68;6.05;;;;;;;-4.92;92.89;98333.03;2092765;28;20631;-56
2022/01/12 05:08:11;;;;;;;14.70;6.05;;;;;;;-4.90;92.79;98329.69;2092371;28;20206;-56
2022/01/12 05:09:27;;;;;;;10.13;5.65;;;;;;;-4.84;93.21;98327.25;2091572;28;20698;-56
2022/01/12 05:12:52;;;;;;;10.60;6.47;;;;;;;-4.75;92.62;98329.13;2092400;28;20202;-57
2022/01/12 05:13:55;;;;;;;11.05;6.50;;;;;;;-4.85;92.31;98332.31;2093605;28;20639;-56
2022/01/12 05:15:08;;;;;;;11.57;6.93;;;;;;;-5.05;92.95;98317.47;2094478;28;20211;-56
2022/01/12 05:16:10;;;;;;;11.45;6.22;;;;;;;-5.25;93.39;98305.97;2093620;28;20191;-56
2022/01/12 05:17:12;;;;;;;24.10;6.10;;;;;;;-4.99;93.71;98338.03;2093581;28;20219;-56
2022/01/12 05:18:14;;;;;;;10.15;6.00;;;;;;;-4.87;93.36;98339.09;2092149;28;20188;-56
2022/01/12 05:19:15;;;;;;;14.07;6.40;;;;;;;-4.94;93.17;98344.91;2093590;28;20219;-56
2022/01/12 05:20:17;;;;;;;11.88;6.28;;;;;;;-4.97;92.95;98346.59;2094555;28;20196;-56
2022/01/12 05:21:21;;;;;;;9.45;6.80;;;;;;;-5.00;93.34;98340.53;2093501;28;20199;-56
2022/01/12 05:22:22;;;;;;;11.43;6.75;;;;;;;-5.10;92.81;98323.31;2093710;28;20648;-56
2022/01/12 05:23:24;;;;;;;14.48;6.55;;;;;;;-4.92;93.14;98348.38;2093948;28;20749;-56
2022/01/12 05:24:26;;;;;;;13.05;6.68;;;;;;;-5.11;93.33;98330.09;2092946;28;20231;-56
2022/01/12 05:25:28;;;;;;;13.00;7.00;;;;;;;-5.31;93.45;98313.47;2093820;28;20196;-57
2022/01/12 05:26:29;;;;;;;12.50;7.03;;;;;;;-5.13;92.95;98331.78;2093524;28;20218;-56
2022/01/12 05:27:31;;;;;;;11.27;6.43;;;;;;;-4.83;92.37;98343.44;2093729;28;20197;-56
2022/01/12 05:28:34;;;;;;;15.73;6.82;;;;;;;-4.81;91.66;98341.78;2093491;28;20570;-59
2022/01/12 05:29:36;;;;;;;16.65;6.93;;;;;;;-5.04;92.43;98344.72;2092788;28;20212;-59
2022/01/12 05:30:37;;;;;;;11.80;7.18;;;;;;;-5.06;92.98;98354.03;2092576;28;20208;-59
2022/01/12 05:31:38;;;;;;;15.65;7.43;;;;;;;-5.06;92.78;98346.38;2093350;28;20673;-59
2022/01/12 05:32:42;;;;;;;14.25;7.05;;;;;;;-5.04;93.37;98348.97;2093704;28;20196;-59
2022/01/12 05:33:47;;;;;;;11.93;7.35;;;;;;;-5.05;93.16;98349.81;2093648;28;20644;-59
2022/01/12 05:34:49;;;;;;;12.73;6.85;;;;;;;-4.98;93.41;98349.09;2093739;28;20220;-59
2022/01/12 05:35:54;;;;;;;12.43;6.72;;;;;;;-4.92;93.73;98358.59;2093313;28;20201;-59
2022/01/12 05:36:55;;;;;;;12.38;6.97;;;;;;;-4.87;93.82;98350.19;2092546;28;20207;-59
2022/01/12 05:37:57;;;;;;;11.82;7.03;;;;;;;-4.87;93.53;98349.34;2092349;28;20203;-59
2022/01/12 05:39:00;;;;;;;18.42;7.68;;;;;;;-4.97;93.40;98338.06;2093334;28;20200;-59
2022/01/12 05:40:02;;;;;;;11.43;7.68;;;;;;;-4.84;93.11;98352.81;2093468;28;20207;-59
2022/01/12 05:41:06;;;;;;;12.38;7.30;;;;;;;-4.94;93.20;98333.00;2093417;28;20542;-59
2022/01/12 05:42:08;;;;;;;14.10;8.27;;;;;;;-4.81;93.28;98339.22;2093487;28;20196;-59
2022/01/12 05:43:09;;;;;;;15.00;7.68;;;;;;;-4.80;92.80;98348.63;2093149;28;20539;-59
2022/01/12 05:44:11;;;;;;;12.40;7.45;;;;;;;-4.97;92.93;98341.47;2092869;28;20231;-59
2022/01/12 05:45:12;;;;;;;13.82;7.30;;;;;;;-5.13;93.70;98331.78;2093083;28;20196;-58
2022/01/12 05:46:14;;;;;;;17.67;8.25;;;;;;;-5.11;93.37;98331.81;2093859;28;20208;-59
2022/01/12 05:47:35;;;;;;;12.50;6.55;;;;;;;-5.09;93.44;98336.13;2093516;28;20350;-59
2022/01/12 05:49:59;;;;;;;12.90;7.45;;;;;;;-5.05;93.01;98342.16;2093254;28;20695;-56
2022/01/12 05:51:00;;;;;;;13.13;7.93;;;;;;;-5.10;93.65;98334.38;2093522;28;20208;-57
2022/01/12 05:52:03;;;;;;;12.32;7.80;;;;;;;-5.17;94.09;98345.31;2093354;28;20203;-56
2022/01/12 05:53:05;;;;;;;14.05;8.20;;;;;;;-5.08;94.51;98360.81;2093118;28;20200;-57
2022/01/12 05:54:07;;;;;;;13.27;8.43;;;;;;;-5.03;94.39;98358.38;2092739;28;20225;-56
2022/01/12 05:55:09;;;;;;;18.42;9.45;;;;;;;-5.19;94.58;98322.28;2093282;28;20200;-57
2022/01/12 05:56:11;;;;;;;14.60;9.43;;;;;;;-4.85;94.63;98357.91;2093376;28;20192;-56
2022/01/12 05:57:12;;;;;;;14.95;8.68;;;;;;;-4.80;94.47;98346.06;2093163;28;20199;-56
2022/01/12 05:58:14;;;;;;;15.75;8.13;;;;;;;-4.67;94.20;98354.84;2093125;28;20197;-56
2022/01/12 05:59:15;;;;;;;13.45;8.50;;;;;;;-4.71;94.27;98359.03;2092640;28;20615;-57
2022/01/12 06:00:19;;;;;;;17.60;9.00;;;;;;;-4.75;93.95;98361.50;2092335;28;20276;-57
2022/01/12 06:01:21;;;;;;;17.85;9.05;;;;;;;-4.73;93.93;98363.25;2092200;28;20200;-57
2022/01/12 06:02:23;;;;;;;11.82;7.80;;;;;;;-4.90;93.78;98357.81;2094100;28;20192;-57
2022/01/12 06:03:25;;;;;;;18.10;9.32;;;;;;;-4.88;93.82;98368.03;2093274;28;20668;-57
2022/01/12 06:04:27;;;;;;;13.75;8.23;;;;;;;-4.84;94.56;98373.28;2090678;28;20227;-57
2022/01/12 06:05:28;;;;;;;17.95;9.05;;;;;;;-4.83;93.75;98369.88;2092865;28;20204;-58
2022/01/12 06:06:30;;;;;;;14.15;8.45;;;;;;;-4.74;93.99;98376.00;2092635;28;20192;-57